sensor_id;sensor_type;location;lat;lon;timestamp;P1;durP1;ratioP1;P2;durP2;ratioP2
6479;SDS011;71753;48.772;9.148;2023-12-29T00:00:09;4.07;;;2.20;;
6479;SDS011;71753;48.772;9.148;2023-12-29T00:02:38;2.73;;;2.10;;
6479;SDS011;71753;48.772;9.148;2023-12-29T00:05:05;2.20;;;1.83;;
6479;SDS011;71753;48.772;9.148;2023-12-29T00:07:32;2.33;;;1.97;;
6479;SDS011;71753;48.772;9.148;2023-12-29T00:09:58;4.60;;;2.10;;
6479;SDS011;71753;48.772;9.148;2023-12-29T00:12:25;2.93;;;2.00;;
6479;SDS011;71753;48.772;9.148;2023-12-29T00:14:52;2.77;;;2.00;;
6479;SDS011;71753;48.772;9.148;2023-12-29T00:17:18;2.43;;;1.93;;
6479;SDS011;71753;48.772;9.148;2023-12-29T00:19:46;3.27;;;1.87;;
6479;SDS011;71753;48.772;9.148;2023-12-29T00:22:13;2.10;;;1.80;;
6479;SDS011;71753;48.772;9.148;2023-12-29T00:24:39;2.70;;;1.90;;
6479;SDS011;71753;48.772;9.148;2023-12-29T00:27:06;2.17;;;1.80;;
6479;SDS011;71753;48.772;9.148;2023-12-29T00:29:33;3.03;;;2.10;;
6479;SDS011;71753;48.772;9.148;2023-12-29T00:32:00;2.87;;;2.10;;
6479;SDS011;71753;48.772;9.148;2023-12-29T00:34:27;3.00;;;2.07;;
6479;SDS011;71753;48.772;9.148;2023-12-29T00:36:55;2.53;;;1.93;;
6479;SDS011;71753;48.772;9.148;2023-12-29T00:39:22;2.57;;;1.90;;
6479;SDS011;71753;48.772;9.148;2023-12-29T00:41:53;2.80;;;1.93;;
6479;SDS011;71753;48.772;9.148;2023-12-29T00:44:21;1.97;;;1.77;;
6479;SDS011;71753;48.772;9.148;2023-12-29T00:46:47;2.23;;;1.90;;
6479;SDS011;71753;48.772;9.148;2023-12-29T00:49:14;2.73;;;1.90;;
6479;SDS011;71753;48.772;9.148;2023-12-29T00:51:41;3.23;;;2.07;;
6479;SDS011;71753;48.772;9.148;2023-12-29T00:54:09;2.17;;;1.90;;
6479;SDS011;71753;48.772;9.148;2023-12-29T00:56:35;2.53;;;2.00;;
6479;SDS011;71753;48.772;9.148;2023-12-29T00:59:02;2.43;;;1.77;;
6479;SDS011;71753;48.772;9.148;2023-12-29T01:01:32;2.77;;;2.07;;
6479;SDS011;71753;48.772;9.148;2023-12-29T01:03:59;2.67;;;2.03;;
6479;SDS011;71753;48.772;9.148;2023-12-29T01:06:26;2.57;;;1.80;;
6479;SDS011;71753;48.772;9.148;2023-12-29T01:08:53;3.13;;;2.27;;
6479;SDS011;71753;48.772;9.148;2023-12-29T01:11:21;2.50;;;1.90;;
6479;SDS011;71753;48.772;9.148;2023-12-29T01:13:48;2.63;;;2.10;;
6479;SDS011;71753;48.772;9.148;2023-12-29T01:16:14;3.23;;;2.13;;
6479;SDS011;71753;48.772;9.148;2023-12-29T01:18:41;2.30;;;1.90;;
6479;SDS011;71753;48.772;9.148;2023-12-29T01:21:08;2.33;;;1.90;;
6479;SDS011;71753;48.772;9.148;2023-12-29T01:23:34;3.30;;;2.40;;
6479;SDS011;71753;48.772;9.148;2023-12-29T01:26:01;3.43;;;2.07;;
6479;SDS011;71753;48.772;9.148;2023-12-29T01:28:29;2.83;;;1.90;;
6479;SDS011;71753;48.772;9.148;2023-12-29T01:30:55;2.40;;;1.93;;
6479;SDS011;71753;48.772;9.148;2023-12-29T01:33:22;3.17;;;2.20;;
6479;SDS011;71753;48.772;9.148;2023-12-29T01:35:49;3.93;;;2.10;;
6479;SDS011;71753;48.772;9.148;2023-12-29T01:38:15;3.03;;;1.97;;
6479;SDS011;71753;48.772;9.148;2023-12-29T01:40:42;2.90;;;2.30;;
6479;SDS011;71753;48.772;9.148;2023-12-29T01:43:09;3.83;;;2.00;;
6479;SDS011;71753;48.772;9.148;2023-12-29T01:45:37;3.23;;;2.33;;
6479;SDS011;71753;48.772;9.148;2023-12-29T01:48:05;3.40;;;2.50;;
6479;SDS011;71753;48.772;9.148;2023-12-29T01:50:33;2.87;;;2.10;;
6479;SDS011;71753;48.772;9.148;2023-12-29T01:53:00;2.30;;;2.07;;
6479;SDS011;71753;48.772;9.148;2023-12-29T01:55:29;3.07;;;2.03;;
6479;SDS011;71753;48.772;9.148;2023-12-29T01:57:56;3.57;;;2.07;;
6479;SDS011;71753;48.772;9.148;2023-12-29T02:00:23;3.23;;;2.30;;
6479;SDS011;71753;48.772;9.148;2023-12-29T02:02:51;2.47;;;2.00;;
6479;SDS011;71753;48.772;9.148;2023-12-29T02:05:19;3.73;;;2.30;;
6479;SDS011;71753;48.772;9.148;2023-12-29T02:07:51;5.10;;;2.33;;
6479;SDS011;71753;48.772;9.148;2023-12-29T02:10:18;3.33;;;2.30;;
6479;SDS011;71753;48.772;9.148;2023-12-29T02:12:46;2.80;;;2.27;;
6479;SDS011;71753;48.772;9.148;2023-12-29T02:15:13;3.10;;;2.20;;
6479;SDS011;71753;48.772;9.148;2023-12-29T02:17:41;3.33;;;1.97;;
6479;SDS011;71753;48.772;9.148;2023-12-29T02:20:15;2.47;;;2.20;;
6479;SDS011;71753;48.772;9.148;2023-12-29T02:22:42;3.60;;;2.33;;
6479;SDS011;71753;48.772;9.148;2023-12-29T02:25:10;3.30;;;2.50;;
6479;SDS011;71753;48.772;9.148;2023-12-29T02:27:41;2.43;;;2.10;;
6479;SDS011;71753;48.772;9.148;2023-12-29T02:30:14;2.83;;;2.10;;
6479;SDS011;71753;48.772;9.148;2023-12-29T02:32:47;3.20;;;2.30;;
6479;SDS011;71753;48.772;9.148;2023-12-29T02:35:17;2.80;;;2.40;;
6479;SDS011;71753;48.772;9.148;2023-12-29T02:37:47;4.00;;;2.53;;
6479;SDS011;71753;48.772;9.148;2023-12-29T02:40:15;3.33;;;2.43;;
6479;SDS011;71753;48.772;9.148;2023-12-29T02:42:45;3.53;;;2.30;;
6479;SDS011;71753;48.772;9.148;2023-12-29T02:45:13;3.53;;;2.43;;
6479;SDS011;71753;48.772;9.148;2023-12-29T02:47:40;2.87;;;2.10;;
6479;SDS011;71753;48.772;9.148;2023-12-29T02:50:07;2.83;;;2.20;;
6479;SDS011;71753;48.772;9.148;2023-12-29T02:52:35;2.90;;;2.10;;
6479;SDS011;71753;48.772;9.148;2023-12-29T02:55:02;3.23;;;2.40;;
6479;SDS011;71753;48.772;9.148;2023-12-29T02:57:30;4.47;;;2.17;;
6479;SDS011;71753;48.772;9.148;2023-12-29T02:59:57;3.47;;;2.13;;
6479;SDS011;71753;48.772;9.148;2023-12-29T03:02:23;3.37;;;2.33;;
6479;SDS011;71753;48.772;9.148;2023-12-29T03:04:50;2.50;;;2.00;;
6479;SDS011;71753;48.772;9.148;2023-12-29T03:07:17;3.33;;;2.30;;
6479;SDS011;71753;48.772;9.148;2023-12-29T03:09:44;3.37;;;2.70;;
6479;SDS011;71753;48.772;9.148;2023-12-29T03:12:10;3.30;;;2.53;;
6479;SDS011;71753;48.772;9.148;2023-12-29T03:14:38;3.10;;;2.50;;
6479;SDS011;71753;48.772;9.148;2023-12-29T03:17:05;3.60;;;2.37;;
6479;SDS011;71753;48.772;9.148;2023-12-29T03:19:32;4.77;;;2.60;;
6479;SDS011;71753;48.772;9.148;2023-12-29T03:21:58;3.50;;;2.30;;
6479;SDS011;71753;48.772;9.148;2023-12-29T03:24:25;2.73;;;2.43;;
6479;SDS011;71753;48.772;9.148;2023-12-29T03:26:51;3.57;;;2.27;;
6479;SDS011;71753;48.772;9.148;2023-12-29T03:29:18;3.23;;;2.40;;
6479;SDS011;71753;48.772;9.148;2023-12-29T03:31:46;3.17;;;2.30;;
6479;SDS011;71753;48.772;9.148;2023-12-29T03:34:13;4.10;;;2.37;;
6479;SDS011;71753;48.772;9.148;2023-12-29T03:36:39;2.90;;;2.17;;
6479;SDS011;71753;48.772;9.148;2023-12-29T03:39:06;3.80;;;2.20;;
6479;SDS011;71753;48.772;9.148;2023-12-29T03:41:32;3.73;;;2.57;;
6479;SDS011;71753;48.772;9.148;2023-12-29T03:43:59;3.67;;;2.50;;
6479;SDS011;71753;48.772;9.148;2023-12-29T03:46:26;3.30;;;2.33;;
6479;SDS011;71753;48.772;9.148;2023-12-29T03:48:54;2.40;;;2.00;;
6479;SDS011;71753;48.772;9.148;2023-12-29T03:51:20;2.63;;;1.80;;
6479;SDS011;71753;48.772;9.148;2023-12-29T03:53:47;3.03;;;2.50;;
6479;SDS011;71753;48.772;9.148;2023-12-29T03:56:14;2.77;;;2.07;;
6479;SDS011;71753;48.772;9.148;2023-12-29T03:58:41;2.97;;;2.20;;
6479;SDS011;71753;48.772;9.148;2023-12-29T04:01:09;2.87;;;1.97;;
6479;SDS011;71753;48.772;9.148;2023-12-29T04:03:36;2.80;;;2.10;;
6479;SDS011;71753;48.772;9.148;2023-12-29T04:06:04;2.10;;;1.90;;
6479;SDS011;71753;48.772;9.148;2023-12-29T04:08:31;2.67;;;1.93;;
6479;SDS011;71753;48.772;9.148;2023-12-29T04:10:57;2.43;;;1.87;;
6479;SDS011;71753;48.772;9.148;2023-12-29T04:13:24;3.23;;;2.30;;
6479;SDS011;71753;48.772;9.148;2023-12-29T04:15:51;3.47;;;2.33;;
6479;SDS011;71753;48.772;9.148;2023-12-29T04:18:18;3.20;;;2.23;;
6479;SDS011;71753;48.772;9.148;2023-12-29T04:20:46;2.87;;;2.10;;
6479;SDS011;71753;48.772;9.148;2023-12-29T04:23:15;3.60;;;2.53;;
6479;SDS011;71753;48.772;9.148;2023-12-29T04:25:41;2.53;;;1.97;;
6479;SDS011;71753;48.772;9.148;2023-12-29T04:28:08;2.57;;;2.10;;
6479;SDS011;71753;48.772;9.148;2023-12-29T04:30:35;3.10;;;2.10;;
6479;SDS011;71753;48.772;9.148;2023-12-29T04:33:02;2.50;;;1.90;;
6479;SDS011;71753;48.772;9.148;2023-12-29T04:35:28;3.10;;;2.30;;
6479;SDS011;71753;48.772;9.148;2023-12-29T04:37:55;4.03;;;2.30;;
6479;SDS011;71753;48.772;9.148;2023-12-29T04:40:23;2.03;;;1.83;;
6479;SDS011;71753;48.772;9.148;2023-12-29T04:42:50;3.00;;;2.13;;
6479;SDS011;71753;48.772;9.148;2023-12-29T04:45:16;3.20;;;2.17;;
6479;SDS011;71753;48.772;9.148;2023-12-29T04:47:43;3.47;;;2.20;;
6479;SDS011;71753;48.772;9.148;2023-12-29T04:50:09;2.63;;;2.10;;
6479;SDS011;71753;48.772;9.148;2023-12-29T04:52:36;3.73;;;2.10;;
6479;SDS011;71753;48.772;9.148;2023-12-29T04:55:03;3.07;;;2.03;;
6479;SDS011;71753;48.772;9.148;2023-12-29T04:57:31;2.47;;;2.03;;
6479;SDS011;71753;48.772;9.148;2023-12-29T04:59:58;2.73;;;2.20;;
6479;SDS011;71753;48.772;9.148;2023-12-29T05:02:24;2.93;;;2.27;;
6479;SDS011;71753;48.772;9.148;2023-12-29T05:04:51;3.53;;;2.43;;
6479;SDS011;71753;48.772;9.148;2023-12-29T05:07:18;2.60;;;2.10;;
6479;SDS011;71753;48.772;9.148;2023-12-29T05:09:45;3.17;;;2.27;;
6479;SDS011;71753;48.772;9.148;2023-12-29T05:12:11;4.57;;;2.30;;
6479;SDS011;71753;48.772;9.148;2023-12-29T05:14:39;4.03;;;2.27;;
6479;SDS011;71753;48.772;9.148;2023-12-29T05:17:06;3.63;;;2.27;;
6479;SDS011;71753;48.772;9.148;2023-12-29T05:19:33;2.70;;;2.07;;
6479;SDS011;71753;48.772;9.148;2023-12-29T05:22:00;3.80;;;2.13;;
6479;SDS011;71753;48.772;9.148;2023-12-29T05:24:26;1.97;;;1.77;;
6479;SDS011;71753;48.772;9.148;2023-12-29T05:26:53;2.50;;;2.10;;
6479;SDS011;71753;48.772;9.148;2023-12-29T05:29:20;2.83;;;2.13;;
6479;SDS011;71753;48.772;9.148;2023-12-29T05:31:48;2.77;;;2.00;;
6479;SDS011;71753;48.772;9.148;2023-12-29T05:34:14;2.50;;;1.90;;
6479;SDS011;71753;48.772;9.148;2023-12-29T05:36:41;3.50;;;2.30;;
6479;SDS011;71753;48.772;9.148;2023-12-29T05:39:08;2.70;;;2.17;;
6479;SDS011;71753;48.772;9.148;2023-12-29T05:41:34;2.73;;;2.20;;
6479;SDS011;71753;48.772;9.148;2023-12-29T05:44:01;2.37;;;2.00;;
6479;SDS011;71753;48.772;9.148;2023-12-29T05:46:28;3.10;;;2.10;;
6479;SDS011;71753;48.772;9.148;2023-12-29T05:48:56;4.00;;;2.20;;
6479;SDS011;71753;48.772;9.148;2023-12-29T05:51:23;2.70;;;2.30;;
6479;SDS011;71753;48.772;9.148;2023-12-29T05:53:50;2.77;;;2.00;;
6479;SDS011;71753;48.772;9.148;2023-12-29T05:56:16;3.27;;;2.10;;
6479;SDS011;71753;48.772;9.148;2023-12-29T05:58:43;2.53;;;2.30;;
6479;SDS011;71753;48.772;9.148;2023-12-29T06:01:10;3.50;;;2.30;;
6479;SDS011;71753;48.772;9.148;2023-12-29T06:03:36;3.30;;;2.17;;
6479;SDS011;71753;48.772;9.148;2023-12-29T06:06:05;2.80;;;1.90;;
6479;SDS011;71753;48.772;9.148;2023-12-29T06:08:32;3.03;;;2.13;;
6479;SDS011;71753;48.772;9.148;2023-12-29T06:10:59;4.47;;;2.23;;
6479;SDS011;71753;48.772;9.148;2023-12-29T06:13:25;3.00;;;2.10;;
6479;SDS011;71753;48.772;9.148;2023-12-29T06:15:52;3.13;;;2.20;;
6479;SDS011;71753;48.772;9.148;2023-12-29T06:18:19;2.63;;;2.00;;
6479;SDS011;71753;48.772;9.148;2023-12-29T06:20:45;3.67;;;2.10;;
6479;SDS011;71753;48.772;9.148;2023-12-29T06:23:13;2.53;;;1.90;;
6479;SDS011;71753;48.772;9.148;2023-12-29T06:25:42;2.53;;;1.93;;
6479;SDS011;71753;48.772;9.148;2023-12-29T06:28:08;2.33;;;1.90;;
6479;SDS011;71753;48.772;9.148;2023-12-29T06:30:35;2.73;;;1.80;;
6479;SDS011;71753;48.772;9.148;2023-12-29T06:33:02;2.67;;;2.00;;
6479;SDS011;71753;48.772;9.148;2023-12-29T06:35:29;2.77;;;2.20;;
6479;SDS011;71753;48.772;9.148;2023-12-29T06:37:55;2.63;;;2.00;;
6479;SDS011;71753;48.772;9.148;2023-12-29T06:40:23;3.27;;;2.10;;
6479;SDS011;71753;48.772;9.148;2023-12-29T06:42:50;2.03;;;1.63;;
6479;SDS011;71753;48.772;9.148;2023-12-29T06:45:17;2.10;;;1.90;;
6479;SDS011;71753;48.772;9.148;2023-12-29T06:47:43;2.73;;;1.90;;
6479;SDS011;71753;48.772;9.148;2023-12-29T06:50:10;2.57;;;2.17;;
6479;SDS011;71753;48.772;9.148;2023-12-29T06:52:38;3.73;;;2.00;;
6479;SDS011;71753;48.772;9.148;2023-12-29T06:55:05;2.20;;;2.00;;
6479;SDS011;71753;48.772;9.148;2023-12-29T06:57:34;2.27;;;2.03;;
6479;SDS011;71753;48.772;9.148;2023-12-29T07:00:01;2.67;;;2.10;;
6479;SDS011;71753;48.772;9.148;2023-12-29T07:02:27;2.47;;;2.00;;
6479;SDS011;71753;48.772;9.148;2023-12-29T07:04:54;3.10;;;1.87;;
6479;SDS011;71753;48.772;9.148;2023-12-29T07:07:21;3.23;;;1.80;;
6479;SDS011;71753;48.772;9.148;2023-12-29T07:09:48;3.30;;;2.03;;
6479;SDS011;71753;48.772;9.148;2023-12-29T07:12:14;2.30;;;1.87;;
6479;SDS011;71753;48.772;9.148;2023-12-29T07:14:43;2.87;;;2.10;;
6479;SDS011;71753;48.772;9.148;2023-12-29T07:17:10;2.60;;;1.90;;
6479;SDS011;71753;48.772;9.148;2023-12-29T07:19:36;4.07;;;2.00;;
6479;SDS011;71753;48.772;9.148;2023-12-29T07:22:03;2.10;;;1.90;;
6479;SDS011;71753;48.772;9.148;2023-12-29T07:24:31;2.70;;;1.90;;
6479;SDS011;71753;48.772;9.148;2023-12-29T07:26:58;3.10;;;1.80;;
6479;SDS011;71753;48.772;9.148;2023-12-29T07:29:25;2.20;;;1.80;;
6479;SDS011;71753;48.772;9.148;2023-12-29T07:31:53;2.27;;;1.90;;
6479;SDS011;71753;48.772;9.148;2023-12-29T07:34:20;2.33;;;1.90;;
6479;SDS011;71753;48.772;9.148;2023-12-29T07:36:46;3.00;;;2.00;;
6479;SDS011;71753;48.772;9.148;2023-12-29T07:39:13;2.53;;;2.03;;
6479;SDS011;71753;48.772;9.148;2023-12-29T07:41:40;2.10;;;1.80;;
6479;SDS011;71753;48.772;9.148;2023-12-29T07:44:07;2.47;;;2.00;;
6479;SDS011;71753;48.772;9.148;2023-12-29T07:46:36;2.03;;;1.70;;
6479;SDS011;71753;48.772;9.148;2023-12-29T07:49:04;2.40;;;1.80;;
6479;SDS011;71753;48.772;9.148;2023-12-29T07:51:31;2.00;;;1.80;;
6479;SDS011;71753;48.772;9.148;2023-12-29T07:53:58;2.83;;;2.20;;
6479;SDS011;71753;48.772;9.148;2023-12-29T07:56:25;2.67;;;2.00;;
6479;SDS011;71753;48.772;9.148;2023-12-29T07:58:51;2.20;;;1.90;;
6479;SDS011;71753;48.772;9.148;2023-12-29T08:01:18;2.30;;;1.80;;
6479;SDS011;71753;48.772;9.148;2023-12-29T08:03:45;2.77;;;2.00;;
6479;SDS011;71753;48.772;9.148;2023-12-29T08:06:13;2.10;;;1.90;;
6479;SDS011;71753;48.772;9.148;2023-12-29T08:08:39;2.40;;;1.93;;
6479;SDS011;71753;48.772;9.148;2023-12-29T08:11:12;2.20;;;2.00;;
6479;SDS011;71753;48.772;9.148;2023-12-29T08:13:39;2.10;;;1.83;;
6479;SDS011;71753;48.772;9.148;2023-12-29T08:16:05;2.43;;;2.00;;
6479;SDS011;71753;48.772;9.148;2023-12-29T08:18:33;2.30;;;1.70;;
6479;SDS011;71753;48.772;9.148;2023-12-29T08:20:59;2.97;;;2.00;;
6479;SDS011;71753;48.772;9.148;2023-12-29T08:23:27;2.40;;;2.00;;
6479;SDS011;71753;48.772;9.148;2023-12-29T08:25:55;1.90;;;1.60;;
6479;SDS011;71753;48.772;9.148;2023-12-29T08:28:22;1.93;;;1.73;;
6479;SDS011;71753;48.772;9.148;2023-12-29T08:30:49;2.30;;;1.90;;
6479;SDS011;71753;48.772;9.148;2023-12-29T08:33:15;3.17;;;1.90;;
6479;SDS011;71753;48.772;9.148;2023-12-29T08:35:43;1.93;;;1.60;;
6479;SDS011;71753;48.772;9.148;2023-12-29T08:38:11;3.23;;;1.80;;
6479;SDS011;71753;48.772;9.148;2023-12-29T08:40:39;2.80;;;1.80;;
6479;SDS011;71753;48.772;9.148;2023-12-29T08:43:06;2.37;;;1.77;;
6479;SDS011;71753;48.772;9.148;2023-12-29T08:45:33;3.13;;;1.77;;
6479;SDS011;71753;48.772;9.148;2023-12-29T08:48:00;3.13;;;1.90;;
6479;SDS011;71753;48.772;9.148;2023-12-29T08:50:28;2.17;;;1.80;;
6479;SDS011;71753;48.772;9.148;2023-12-29T08:52:54;2.27;;;1.97;;
6479;SDS011;71753;48.772;9.148;2023-12-29T08:55:21;3.70;;;2.20;;
6479;SDS011;71753;48.772;9.148;2023-12-29T08:57:49;3.20;;;2.30;;
6479;SDS011;71753;48.772;9.148;2023-12-29T09:00:16;5.60;;;2.13;;
6479;SDS011;71753;48.772;9.148;2023-12-29T09:02:42;3.07;;;1.90;;
6479;SDS011;71753;48.772;9.148;2023-12-29T09:05:09;3.47;;;2.00;;
6479;SDS011;71753;48.772;9.148;2023-12-29T09:07:36;2.97;;;2.10;;
6479;SDS011;71753;48.772;9.148;2023-12-29T09:10:03;3.17;;;1.77;;
6479;SDS011;71753;48.772;9.148;2023-12-29T09:12:33;2.43;;;1.70;;
6479;SDS011;71753;48.772;9.148;2023-12-29T09:15:01;2.10;;;1.80;;
6479;SDS011;71753;48.772;9.148;2023-12-29T09:17:28;2.20;;;1.80;;
6479;SDS011;71753;48.772;9.148;2023-12-29T09:19:54;2.83;;;2.13;;
6479;SDS011;71753;48.772;9.148;2023-12-29T09:22:21;2.77;;;2.00;;
6479;SDS011;71753;48.772;9.148;2023-12-29T09:24:48;2.87;;;2.17;;
6479;SDS011;71753;48.772;9.148;2023-12-29T09:27:14;2.93;;;1.90;;
6479;SDS011;71753;48.772;9.148;2023-12-29T09:29:42;2.07;;;1.60;;
6479;SDS011;71753;48.772;9.148;2023-12-29T09:32:10;2.40;;;1.70;;
6479;SDS011;71753;48.772;9.148;2023-12-29T09:34:37;3.73;;;2.00;;
6479;SDS011;71753;48.772;9.148;2023-12-29T09:37:03;1.90;;;1.67;;
6479;SDS011;71753;48.772;9.148;2023-12-29T09:39:30;2.00;;;1.60;;
6479;SDS011;71753;48.772;9.148;2023-12-29T09:41:57;2.27;;;1.77;;
6479;SDS011;71753;48.772;9.148;2023-12-29T09:44:27;3.37;;;2.10;;
6479;SDS011;71753;48.772;9.148;2023-12-29T09:46:54;2.00;;;1.70;;
6479;SDS011;71753;48.772;9.148;2023-12-29T09:49:24;2.20;;;1.50;;
6479;SDS011;71753;48.772;9.148;2023-12-29T09:51:53;2.47;;;1.63;;
6479;SDS011;71753;48.772;9.148;2023-12-29T09:54:20;1.73;;;1.50;;
6479;SDS011;71753;48.772;9.148;2023-12-29T09:56:48;2.00;;;1.47;;
6479;SDS011;71753;48.772;9.148;2023-12-29T09:59:15;3.43;;;1.93;;
6479;SDS011;71753;48.772;9.148;2023-12-29T10:01:43;3.17;;;1.90;;
6479;SDS011;71753;48.772;9.148;2023-12-29T10:04:12;1.93;;;1.53;;
6479;SDS011;71753;48.772;9.148;2023-12-29T10:06:41;1.50;;;1.40;;
6479;SDS011;71753;48.772;9.148;2023-12-29T10:09:12;2.40;;;1.47;;
6479;SDS011;71753;48.772;9.148;2023-12-29T10:11:41;1.80;;;1.50;;
6479;SDS011;71753;48.772;9.148;2023-12-29T10:14:09;1.93;;;1.60;;
6479;SDS011;71753;48.772;9.148;2023-12-29T10:16:48;2.20;;;1.80;;
6479;SDS011;71753;48.772;9.148;2023-12-29T10:19:22;1.83;;;1.57;;
6479;SDS011;71753;48.772;9.148;2023-12-29T10:21:57;2.00;;;1.63;;
6479;SDS011;71753;48.772;9.148;2023-12-29T10:24:29;2.03;;;1.60;;
6479;SDS011;71753;48.772;9.148;2023-12-29T10:26:56;1.67;;;1.57;;
6479;SDS011;71753;48.772;9.148;2023-12-29T10:29:23;3.10;;;1.53;;
6479;SDS011;71753;48.772;9.148;2023-12-29T10:31:51;1.53;;;1.30;;
6479;SDS011;71753;48.772;9.148;2023-12-29T10:34:17;1.67;;;1.40;;
6479;SDS011;71753;48.772;9.148;2023-12-29T10:36:47;1.40;;;1.30;;
6479;SDS011;71753;48.772;9.148;2023-12-29T10:39:16;2.00;;;1.40;;
6479;SDS011;71753;48.772;9.148;2023-12-29T10:41:43;1.60;;;1.43;;
6479;SDS011;71753;48.772;9.148;2023-12-29T10:44:09;2.17;;;1.40;;
6479;SDS011;71753;48.772;9.148;2023-12-29T10:46:36;2.00;;;1.30;;
6479;SDS011;71753;48.772;9.148;2023-12-29T10:49:06;1.50;;;1.40;;
6479;SDS011;71753;48.772;9.148;2023-12-29T10:51:34;1.80;;;1.33;;
6479;SDS011;71753;48.772;9.148;2023-12-29T10:54:01;2.33;;;1.33;;
6479;SDS011;71753;48.772;9.148;2023-12-29T10:56:29;1.50;;;1.20;;
6479;SDS011;71753;48.772;9.148;2023-12-29T10:58:59;1.30;;;1.20;;
6479;SDS011;71753;48.772;9.148;2023-12-29T11:01:27;1.40;;;1.30;;
6479;SDS011;71753;48.772;9.148;2023-12-29T11:03:58;1.53;;;1.40;;
6479;SDS011;71753;48.772;9.148;2023-12-29T11:06:26;1.43;;;1.13;;
6479;SDS011;71753;48.772;9.148;2023-12-29T11:08:53;2.07;;;1.20;;
6479;SDS011;71753;48.772;9.148;2023-12-29T11:11:20;1.40;;;1.30;;
6479;SDS011;71753;48.772;9.148;2023-12-29T11:13:49;1.47;;;1.37;;
6479;SDS011;71753;48.772;9.148;2023-12-29T11:16:16;1.67;;;1.37;;
6479;SDS011;71753;48.772;9.148;2023-12-29T11:18:46;1.67;;;1.40;;
6479;SDS011;71753;48.772;9.148;2023-12-29T11:21:15;1.30;;;1.20;;
6479;SDS011;71753;48.772;9.148;2023-12-29T11:23:43;1.47;;;1.30;;
6479;SDS011;71753;48.772;9.148;2023-12-29T11:26:09;1.63;;;1.40;;
6479;SDS011;71753;48.772;9.148;2023-12-29T11:28:37;1.73;;;1.20;;
6479;SDS011;71753;48.772;9.148;2023-12-29T11:31:05;1.50;;;1.40;;
6479;SDS011;71753;48.772;9.148;2023-12-29T11:33:34;2.80;;;1.70;;
6479;SDS011;71753;48.772;9.148;2023-12-29T11:36:08;1.30;;;1.20;;
6479;SDS011;71753;48.772;9.148;2023-12-29T11:38:43;1.30;;;1.20;;
6479;SDS011;71753;48.772;9.148;2023-12-29T11:41:17;1.30;;;1.20;;
6479;SDS011;71753;48.772;9.148;2023-12-29T11:43:56;1.47;;;1.37;;
6479;SDS011;71753;48.772;9.148;2023-12-29T11:46:34;1.67;;;1.40;;
6479;SDS011;71753;48.772;9.148;2023-12-29T11:49:01;1.33;;;1.23;;
6479;SDS011;71753;48.772;9.148;2023-12-29T11:51:32;1.17;;;1.07;;
6479;SDS011;71753;48.772;9.148;2023-12-29T11:54:00;1.50;;;1.20;;
6479;SDS011;71753;48.772;9.148;2023-12-29T11:56:31;1.20;;;1.10;;
6479;SDS011;71753;48.772;9.148;2023-12-29T12:01:50;1.20;;;1.10;;
6479;SDS011;71753;48.772;9.148;2023-12-29T12:04:39;1.40;;;1.20;;
6479;SDS011;71753;48.772;9.148;2023-12-29T12:07:07;1.40;;;1.30;;
6479;SDS011;71753;48.772;9.148;2023-12-29T12:09:38;1.13;;;1.10;;
6479;SDS011;71753;48.772;9.148;2023-12-29T12:12:05;1.47;;;1.27;;
6479;SDS011;71753;48.772;9.148;2023-12-29T12:14:45;1.30;;;1.20;;
6479;SDS011;71753;48.772;9.148;2023-12-29T12:17:27;1.50;;;1.33;;
6479;SDS011;71753;48.772;9.148;2023-12-29T12:19:56;1.20;;;1.10;;
6479;SDS011;71753;48.772;9.148;2023-12-29T12:22:24;1.60;;;1.40;;
6479;SDS011;71753;48.772;9.148;2023-12-29T12:24:57;1.47;;;1.37;;
6479;SDS011;71753;48.772;9.148;2023-12-29T12:27:24;1.23;;;1.13;;
6479;SDS011;71753;48.772;9.148;2023-12-29T12:29:55;1.37;;;1.27;;
6479;SDS011;71753;48.772;9.148;2023-12-29T12:32:24;1.47;;;1.30;;
6479;SDS011;71753;48.772;9.148;2023-12-29T12:34:53;1.43;;;1.30;;
6479;SDS011;71753;48.772;9.148;2023-12-29T12:37:20;1.40;;;1.30;;
6479;SDS011;71753;48.772;9.148;2023-12-29T12:39:47;1.47;;;1.37;;
6479;SDS011;71753;48.772;9.148;2023-12-29T12:42:15;1.70;;;1.40;;
6479;SDS011;71753;48.772;9.148;2023-12-29T12:44:42;1.40;;;1.23;;
6479;SDS011;71753;48.772;9.148;2023-12-29T12:47:16;1.83;;;1.40;;
6479;SDS011;71753;48.772;9.148;2023-12-29T12:49:49;1.40;;;1.30;;
6479;SDS011;71753;48.772;9.148;2023-12-29T12:52:18;1.40;;;1.23;;
6479;SDS011;71753;48.772;9.148;2023-12-29T12:54:45;1.53;;;1.17;;
6479;SDS011;71753;48.772;9.148;2023-12-29T12:57:13;1.63;;;1.10;;
6479;SDS011;71753;48.772;9.148;2023-12-29T12:59:44;1.50;;;1.20;;
6479;SDS011;71753;48.772;9.148;2023-12-29T13:02:11;1.40;;;1.30;;
6479;SDS011;71753;48.772;9.148;2023-12-29T13:04:39;1.10;;;1.00;;
6479;SDS011;71753;48.772;9.148;2023-12-29T13:07:06;1.70;;;1.37;;
6479;SDS011;71753;48.772;9.148;2023-12-29T13:09:36;1.60;;;1.50;;
6479;SDS011;71753;48.772;9.148;2023-12-29T13:12:09;1.10;;;1.00;;
6479;SDS011;71753;48.772;9.148;2023-12-29T13:14:37;1.30;;;1.20;;
6479;SDS011;71753;48.772;9.148;2023-12-29T13:17:07;1.70;;;1.20;;
6479;SDS011;71753;48.772;9.148;2023-12-29T13:19:36;1.50;;;1.20;;
6479;SDS011;71753;48.772;9.148;2023-12-29T13:22:05;1.30;;;1.20;;
6479;SDS011;71753;48.772;9.148;2023-12-29T13:24:33;1.30;;;1.20;;
6479;SDS011;71753;48.772;9.148;2023-12-29T13:27:04;1.20;;;1.10;;
6479;SDS011;71753;48.772;9.148;2023-12-29T13:29:32;1.30;;;1.20;;
6479;SDS011;71753;48.772;9.148;2023-12-29T13:32:02;1.90;;;1.50;;
6479;SDS011;71753;48.772;9.148;2023-12-29T13:34:35;1.80;;;1.30;;
6479;SDS011;71753;48.772;9.148;2023-12-29T13:37:05;1.50;;;1.37;;
6479;SDS011;71753;48.772;9.148;2023-12-29T13:39:36;1.97;;;1.23;;
6479;SDS011;71753;48.772;9.148;2023-12-29T13:42:09;1.40;;;1.30;;
6479;SDS011;71753;48.772;9.148;2023-12-29T13:44:38;2.40;;;1.63;;
6479;SDS011;71753;48.772;9.148;2023-12-29T13:47:07;1.30;;;1.20;;
6479;SDS011;71753;48.772;9.148;2023-12-29T13:49:34;1.37;;;1.27;;
6479;SDS011;71753;48.772;9.148;2023-12-29T13:52:01;1.87;;;1.47;;
6479;SDS011;71753;48.772;9.148;2023-12-29T13:54:29;1.30;;;1.20;;
6479;SDS011;71753;48.772;9.148;2023-12-29T13:56:56;1.67;;;1.50;;
6479;SDS011;71753;48.772;9.148;2023-12-29T13:59:30;1.40;;;1.30;;
6479;SDS011;71753;48.772;9.148;2023-12-29T14:01:58;1.47;;;1.37;;
6479;SDS011;71753;48.772;9.148;2023-12-29T14:04:29;1.30;;;1.20;;
6479;SDS011;71753;48.772;9.148;2023-12-29T14:06:58;1.10;;;0.97;;
6479;SDS011;71753;48.772;9.148;2023-12-29T14:09:27;1.30;;;1.20;;
6479;SDS011;71753;48.772;9.148;2023-12-29T14:11:54;1.47;;;1.23;;
6479;SDS011;71753;48.772;9.148;2023-12-29T14:14:21;2.03;;;1.77;;
6479;SDS011;71753;48.772;9.148;2023-12-29T14:16:51;2.30;;;1.70;;
6479;SDS011;71753;48.772;9.148;2023-12-29T14:19:18;1.97;;;1.30;;
6479;SDS011;71753;48.772;9.148;2023-12-29T14:21:45;1.53;;;1.40;;
6479;SDS011;71753;48.772;9.148;2023-12-29T14:24:15;1.60;;;1.20;;
6479;SDS011;71753;48.772;9.148;2023-12-29T14:26:42;1.30;;;1.20;;
6479;SDS011;71753;48.772;9.148;2023-12-29T14:29:21;1.67;;;1.40;;
6479;SDS011;71753;48.772;9.148;2023-12-29T14:31:48;1.33;;;1.20;;
6479;SDS011;71753;48.772;9.148;2023-12-29T14:34:17;1.67;;;1.30;;
6479;SDS011;71753;48.772;9.148;2023-12-29T14:36:45;1.37;;;1.10;;
6479;SDS011;71753;48.772;9.148;2023-12-29T14:39:12;1.40;;;1.30;;
6479;SDS011;71753;48.772;9.148;2023-12-29T14:41:40;1.60;;;1.30;;
6479;SDS011;71753;48.772;9.148;2023-12-29T14:44:07;1.50;;;1.40;;
6479;SDS011;71753;48.772;9.148;2023-12-29T14:46:33;3.27;;;1.30;;
6479;SDS011;71753;48.772;9.148;2023-12-29T14:49:01;1.30;;;1.20;;
6479;SDS011;71753;48.772;9.148;2023-12-29T14:51:29;2.70;;;1.30;;
6479;SDS011;71753;48.772;9.148;2023-12-29T14:53:56;1.33;;;1.23;;
6479;SDS011;71753;48.772;9.148;2023-12-29T14:56:23;1.30;;;1.20;;
6479;SDS011;71753;48.772;9.148;2023-12-29T14:58:49;1.40;;;1.23;;
6479;SDS011;71753;48.772;9.148;2023-12-29T15:01:16;1.60;;;1.43;;
6479;SDS011;71753;48.772;9.148;2023-12-29T15:03:43;1.30;;;1.20;;
6479;SDS011;71753;48.772;9.148;2023-12-29T15:06:10;1.87;;;1.60;;